createdAt,value
2023-01-22T00:01:25.199Z,55.87
2023-01-22T00:03:53.843Z,59.47
2023-01-22T00:06:25.686Z,58.57
2023-01-22T00:08:54.650Z,56.40
2023-01-22T00:11:23.577Z,62.80
2023-01-22T00:13:52.578Z,61.47
2023-01-22T00:16:20.323Z,53.53
2023-01-22T00:18:47.287Z,65.23
2023-01-22T00:21:14.149Z,64.93
2023-01-22T00:23:43.120Z,64.13
2023-01-22T00:26:12.079Z,57.27
2023-01-22T00:28:41.968Z,63.00
2023-01-22T00:31:09.991Z,57.30
2023-01-22T00:33:37.728Z,57.73
2023-01-22T00:36:05.843Z,60.00
2023-01-22T00:38:34.886Z,54.97
2023-01-22T00:41:07.771Z,57.47
2023-01-22T00:43:35.039Z,62.57
2023-01-22T00:46:05.021Z,65.87
2023-01-22T00:48:31.850Z,56.57
2023-01-22T00:50:58.781Z,57.40
2023-01-22T00:53:28.577Z,57.77
2023-01-22T00:56:00.103Z,59.03
2023-01-22T00:58:30.232Z,60.13
2023-01-22T01:00:57.184Z,53.73
2023-01-22T01:03:26.967Z,58.53
2023-01-22T01:05:59.562Z,55.47
2023-01-22T01:08:26.737Z,52.93
2023-01-22T01:10:55.172Z,54.23
2023-01-22T01:13:22.213Z,46.07
2023-01-22T01:15:49.109Z,53.77
2023-01-22T01:18:16.679Z,51.43
2023-01-22T01:20:43.528Z,51.43
2023-01-22T01:23:10.317Z,44.73
2023-01-22T01:25:42.553Z,56.83
2023-01-22T01:28:11.488Z,51.33
2023-01-22T01:30:38.264Z,43.50
2023-01-22T01:33:07.596Z,46.10
2023-01-22T01:35:34.363Z,44.00
2023-01-22T01:38:01.126Z,42.30
2023-01-22T01:40:30.576Z,42.13
2023-01-22T01:42:59.601Z,47.07
2023-01-22T01:45:32.610Z,44.13
2023-01-22T01:48:08.815Z,46.43
2023-01-22T01:50:35.634Z,44.03
2023-01-22T01:53:02.408Z,42.83
2023-01-22T01:55:34.979Z,43.10
2023-01-22T01:58:06.044Z,45.90
2023-01-22T02:00:34.038Z,43.37
2023-01-22T02:03:01.075Z,49.17
2023-01-22T02:05:31.087Z,39.67
2023-01-22T02:07:58.002Z,40.50
2023-01-22T02:10:26.911Z,41.40
2023-01-22T02:12:54.412Z,39.93
2023-01-22T02:15:21.193Z,40.40
2023-01-22T02:17:48.275Z,38.63
2023-01-22T02:20:16.467Z,37.63
2023-01-22T02:22:43.473Z,40.20
2023-01-22T02:25:10.302Z,38.83
2023-01-22T02:27:37.095Z,37.53
2023-01-22T02:30:04.114Z,37.80
2023-01-22T02:32:30.921Z,39.20
2023-01-22T02:34:57.690Z,40.77
2023-01-22T02:37:24.548Z,38.57
2023-01-22T02:39:51.365Z,35.60
2023-01-22T02:42:18.194Z,35.50
2023-01-22T02:44:47.181Z,42.60
2023-01-22T02:47:13.993Z,36.30
2023-01-22T02:49:40.779Z,36.73
2023-01-22T02:52:07.519Z,37.57
2023-01-22T02:54:34.324Z,37.03
2023-01-22T02:57:03.268Z,34.40
2023-01-22T02:59:30.199Z,37.13
2023-01-22T03:01:57.360Z,36.03
2023-01-22T03:04:24.226Z,40.17
2023-01-22T03:06:53.276Z,38.43
2023-01-22T03:09:20.048Z,38.77
2023-01-22T03:11:47.239Z,39.63
2023-01-22T03:14:32.818Z,37.20
2023-01-22T03:17:18.192Z,42.27
2023-01-22T03:20:03.639Z,41.33
2023-01-22T03:22:30.477Z,38.60
2023-01-22T03:25:01.396Z,36.70
2023-01-22T03:27:28.925Z,38.43
2023-01-22T03:29:58.305Z,39.10
2023-01-22T03:32:25.265Z,34.03
2023-01-22T03:34:52.426Z,34.20
2023-01-22T03:37:19.263Z,38.13
2023-01-22T03:39:51.786Z,36.97
2023-01-22T03:42:21.086Z,38.77
2023-01-22T03:44:50.013Z,35.37
2023-01-22T03:47:19.949Z,35.20
2023-01-22T03:49:49.052Z,34.60
2023-01-22T03:52:18.273Z,33.63
2023-01-22T03:54:47.207Z,35.33
2023-01-22T03:57:14.116Z,34.43
2023-01-22T03:59:45.680Z,38.63
2023-01-22T04:02:14.967Z,34.90
2023-01-22T04:04:44.622Z,35.50
2023-01-22T04:07:13.963Z,36.87
2023-01-22T04:09:40.794Z,39.90
2023-01-22T04:12:10.740Z,33.00
2023-01-22T04:14:39.665Z,33.40
2023-01-22T04:17:06.476Z,34.93
2023-01-22T04:19:37.921Z,37.73
2023-01-22T04:22:04.824Z,35.10
2023-01-22T04:24:31.610Z,34.50
2023-01-22T04:26:58.403Z,36.70
2023-01-22T04:29:25.188Z,35.47
2023-01-22T04:31:52.051Z,35.20
2023-01-22T04:34:21.427Z,37.13
2023-01-22T04:36:50.622Z,38.50
2023-01-22T04:39:17.362Z,36.90
2023-01-22T04:41:44.207Z,36.23
2023-01-22T04:44:11.309Z,36.43
2023-01-22T04:46:38.122Z,33.33
2023-01-22T04:49:04.865Z,41.40
2023-01-22T04:51:31.706Z,35.97
2023-01-22T04:53:58.474Z,33.53
2023-01-22T04:56:25.270Z,34.23
2023-01-22T04:58:51.998Z,35.13
2023-01-22T05:01:18.753Z,34.80
2023-01-22T05:03:45.514Z,35.17
2023-01-22T05:06:12.259Z,31.43
2023-01-22T05:08:39.025Z,35.63
2023-01-22T05:11:05.891Z,30.90
2023-01-22T05:13:32.678Z,33.07
2023-01-22T05:16:01.858Z,35.67
2023-01-22T05:18:28.715Z,32.80
2023-01-22T05:20:55.571Z,33.10
2023-01-22T05:23:22.404Z,36.50
2023-01-22T05:25:49.804Z,35.17
2023-01-22T05:28:18.757Z,34.17
2023-01-22T05:30:47.327Z,33.83
2023-01-22T05:33:14.172Z,33.73
2023-01-22T05:35:40.939Z,33.90
2023-01-22T05:38:09.948Z,35.00
2023-01-22T05:40:38.860Z,31.80
2023-01-22T05:43:05.651Z,33.63
2023-01-22T05:45:32.433Z,34.03
2023-01-22T05:47:59.236Z,37.37
2023-01-22T05:50:26.022Z,36.10
2023-01-22T05:52:55.634Z,33.73
2023-01-22T05:55:22.596Z,35.10
2023-01-22T05:57:49.378Z,38.23
2023-01-22T06:00:16.998Z,35.50
2023-01-22T06:02:44.304Z,36.33
2023-01-22T06:05:11.220Z,32.47
2023-01-22T06:07:37.986Z,34.93
2023-01-22T06:10:05.084Z,34.87
2023-01-22T06:12:31.822Z,34.27
2023-01-22T06:14:58.618Z,35.53
2023-01-22T06:17:27.674Z,32.60
2023-01-22T06:19:54.447Z,36.23
2023-01-22T06:22:23.476Z,33.37
2023-01-22T06:24:50.238Z,31.07
2023-01-22T06:27:17.092Z,37.13
2023-01-22T06:29:46.027Z,36.47
2023-01-22T06:32:12.839Z,31.20
2023-01-22T06:34:39.646Z,34.40
2023-01-22T06:37:08.884Z,33.77
2023-01-22T06:39:37.815Z,33.47
2023-01-22T06:42:06.888Z,33.33
2023-01-22T06:44:33.663Z,34.57
2023-01-22T06:47:00.449Z,33.57
2023-01-22T06:49:27.216Z,32.13
2023-01-22T06:51:53.996Z,29.73
2023-01-22T06:54:20.761Z,30.97
2023-01-22T06:56:47.507Z,31.00
2023-01-22T06:59:14.272Z,33.30
2023-01-22T07:01:45.536Z,30.57
2023-01-22T07:04:12.361Z,35.43
2023-01-22T07:06:39.538Z,30.27
2023-01-22T07:09:06.332Z,30.23
2023-01-22T07:11:33.103Z,30.60
2023-01-22T07:13:59.886Z,29.50
2023-01-22T07:16:28.968Z,28.17
2023-01-22T07:18:55.836Z,29.47
2023-01-22T07:21:27.135Z,27.67
2023-01-22T07:23:54.278Z,28.97
2023-01-22T07:26:25.717Z,29.63
2023-01-22T07:28:52.603Z,27.97
2023-01-22T07:31:19.499Z,28.67
2023-01-22T07:33:46.437Z,28.60
2023-01-22T07:36:13.207Z,26.70
2023-01-22T07:38:42.238Z,29.90
2023-01-22T07:41:20.199Z,29.93
2023-01-22T07:43:53.626Z,27.93
2023-01-22T07:46:20.528Z,29.23
2023-01-22T07:48:47.427Z,27.20
2023-01-22T07:51:14.481Z,29.87
2023-01-22T07:53:43.754Z,28.90
2023-01-22T07:56:10.523Z,28.13
2023-01-22T07:58:41.203Z,26.43
2023-01-22T08:01:11.258Z,26.10
2023-01-22T08:03:40.765Z,29.10
2023-01-22T08:06:16.775Z,28.20
2023-01-22T08:08:43.587Z,26.33
2023-01-22T08:11:12.710Z,31.10
2023-01-22T08:13:39.553Z,28.83
2023-01-22T08:16:06.690Z,28.10
2023-01-22T08:18:36.212Z,27.00
2023-01-22T08:21:05.202Z,26.73
2023-01-22T08:23:32.448Z,31.03
2023-01-22T08:26:03.419Z,27.60
2023-01-22T08:28:30.433Z,29.80
2023-01-22T08:31:03.318Z,30.87
2023-01-22T08:33:31.546Z,30.60
2023-01-22T08:35:58.392Z,27.70
2023-01-22T08:38:27.652Z,34.17
2023-01-22T08:40:57.018Z,30.03
2023-01-22T08:43:26.224Z,31.80
2023-01-22T08:45:53.069Z,33.63
2023-01-22T08:48:19.867Z,30.40
2023-01-22T08:50:46.692Z,32.53
2023-01-22T08:53:15.696Z,28.93
2023-01-22T08:55:53.662Z,30.50
2023-01-22T08:58:25.361Z,28.80
2023-01-22T09:00:54.921Z,32.40
2023-01-22T09:03:24.341Z,31.97
2023-01-22T09:05:51.157Z,28.83
2023-01-22T09:08:18.074Z,34.07
2023-01-22T09:10:44.897Z,31.07
2023-01-22T09:13:11.753Z,33.80
2023-01-22T09:15:39.720Z,31.70
2023-01-22T09:18:06.796Z,32.20
2023-01-22T09:20:33.820Z,30.40
2023-01-22T09:23:02.851Z,29.53
2023-01-22T09:25:32.519Z,29.67
2023-01-22T09:28:08.687Z,31.97
2023-01-22T09:30:36.045Z,28.87
2023-01-22T09:33:02.803Z,30.10
2023-01-22T09:35:32.062Z,31.80
2023-01-22T09:37:58.892Z,30.70
2023-01-22T09:40:39.894Z,30.30
2023-01-22T09:43:10.135Z,29.40
2023-01-22T09:45:39.392Z,29.47
2023-01-22T09:48:09.271Z,30.20
2023-01-22T09:50:36.084Z,34.27
2023-01-22T09:53:05.080Z,32.30
2023-01-22T09:55:34.241Z,28.90
2023-01-22T09:58:02.191Z,32.40
2023-01-22T10:01:01.837Z,32.83
2023-01-22T10:03:37.692Z,30.03
2023-01-22T10:06:12.224Z,30.57
2023-01-22T10:08:43.763Z,29.07
2023-01-22T10:11:10.851Z,30.80
2023-01-22T10:13:38.481Z,31.47
2023-01-22T10:16:05.782Z,30.37
2023-01-22T10:18:56.901Z,27.83
2023-01-22T10:21:31.449Z,29.43
2023-01-22T10:23:58.525Z,29.33
2023-01-22T10:26:55.557Z,28.80
2023-01-22T10:29:34.698Z,29.17
2023-01-22T10:32:37.153Z,26.27
2023-01-22T10:35:05.392Z,31.43
2023-01-22T10:37:43.658Z,29.77
2023-01-22T10:40:24.868Z,29.57
2023-01-22T10:43:13.042Z,28.93
2023-01-22T10:46:00.900Z,29.37
2023-01-22T10:48:27.784Z,27.10
2023-01-22T10:51:11.707Z,30.73
2023-01-22T10:53:40.169Z,26.47
2023-01-22T10:56:08.205Z,28.40
2023-01-22T10:58:37.511Z,27.70
2023-01-22T11:01:06.909Z,27.00
2023-01-22T11:03:40.129Z,29.10
2023-01-22T11:06:23.032Z,28.30
2023-01-22T11:09:14.488Z,27.17
2023-01-22T11:11:47.680Z,35.33
2023-01-22T11:14:35.411Z,29.50
2023-01-22T11:17:19.713Z,30.30
2023-01-22T11:19:51.559Z,27.23
2023-01-22T11:22:28.011Z,27.07
2023-01-22T11:24:57.363Z,30.20
2023-01-22T11:27:35.462Z,29.60
2023-01-22T11:30:37.650Z,31.27
2023-01-22T11:33:06.602Z,30.03
2023-01-22T11:35:39.409Z,33.97
2023-01-22T11:38:06.246Z,28.30
2023-01-22T11:40:52.554Z,28.73
2023-01-22T11:43:31.646Z,30.03
2023-01-22T11:46:20.691Z,31.40
2023-01-22T11:49:01.528Z,29.10
2023-01-22T11:52:09.956Z,31.33
2023-01-22T11:55:04.885Z,32.47
2023-01-22T11:57:43.727Z,29.30
2023-01-22T12:00:34.127Z,38.63
2023-01-22T12:03:06.997Z,31.80
2023-01-22T12:05:48.785Z,34.33
2023-01-22T12:08:47.846Z,35.83
2023-01-22T12:11:20.202Z,36.63
2023-01-22T12:13:55.673Z,39.17
2023-01-22T12:16:22.526Z,38.93
2023-01-22T12:18:58.315Z,39.03
2023-01-22T12:21:31.893Z,43.83
2023-01-22T12:23:58.696Z,44.00
2023-01-22T12:26:38.187Z,42.53
2023-01-22T12:29:12.990Z,44.53
2023-01-22T12:31:49.075Z,41.37
2023-01-22T12:34:33.904Z,41.70
2023-01-22T12:37:00.733Z,39.17
2023-01-22T12:39:43.379Z,40.10
2023-01-22T12:42:24.084Z,42.90
2023-01-22T12:44:53.851Z,35.47
2023-01-22T12:47:48.669Z,41.23
2023-01-22T12:50:20.866Z,41.30
2023-01-22T12:53:03.494Z,35.93
2023-01-22T12:55:37.966Z,40.90
2023-01-22T12:58:05.115Z,37.10
2023-01-22T13:00:39.051Z,39.33
2023-01-22T13:03:31.023Z,35.03
2023-01-22T13:05:58.616Z,38.57
2023-01-22T13:08:35.867Z,34.57
2023-01-22T13:11:11.183Z,34.97
2023-01-22T13:13:44.655Z,37.70
2023-01-22T13:16:20.219Z,32.90
2023-01-22T13:18:52.226Z,33.47
2023-01-22T13:21:27.228Z,36.93
2023-01-22T13:24:01.130Z,34.93
2023-01-22T13:26:30.417Z,35.63
2023-01-22T13:29:00.134Z,32.07
2023-01-22T13:31:27.138Z,30.50
2023-01-22T13:34:01.090Z,33.53
2023-01-22T13:36:28.145Z,34.63
2023-01-22T13:38:59.070Z,33.63
2023-01-22T13:41:40.843Z,33.77
2023-01-22T13:44:12.437Z,32.80
2023-01-22T13:46:39.334Z,32.70
2023-01-22T13:49:28.576Z,30.33
2023-01-22T13:51:56.693Z,32.93
2023-01-22T13:54:43.020Z,36.77
2023-01-22T13:57:13.687Z,31.20
2023-01-22T13:59:40.414Z,30.20
2023-01-22T14:02:19.714Z,36.33
2023-01-22T14:04:48.916Z,31.93
2023-01-22T14:07:36.915Z,27.90
2023-01-22T14:10:16.188Z,29.37
2023-01-22T14:12:43.160Z,29.90
2023-01-22T14:15:20.520Z,31.83
2023-01-22T14:17:49.745Z,29.53
2023-01-22T14:20:17.751Z,28.83
2023-01-22T14:22:47.469Z,33.00
2023-01-22T14:25:16.534Z,30.93
2023-01-22T14:27:49.772Z,35.93
2023-01-22T14:30:18.185Z,30.67
2023-01-22T14:32:45.482Z,33.50
2023-01-22T14:35:17.185Z,35.30
2023-01-22T14:37:43.961Z,40.80
2023-01-22T14:40:14.816Z,33.57
2023-01-22T14:42:41.648Z,33.67
2023-01-22T14:45:11.362Z,35.67
2023-01-22T14:47:38.137Z,34.40
2023-01-22T14:50:06.033Z,31.47
2023-01-22T14:52:32.926Z,35.37
2023-01-22T14:55:01.916Z,31.93
2023-01-22T14:57:30.857Z,30.77
2023-01-22T14:59:57.647Z,29.77
2023-01-22T15:02:24.444Z,34.50
2023-01-22T15:04:51.413Z,31.50
2023-01-22T15:07:18.171Z,34.90
2023-01-22T15:09:47.155Z,33.90
2023-01-22T15:12:13.922Z,36.43
2023-01-22T15:14:40.664Z,33.23
2023-01-22T15:17:07.434Z,35.03
2023-01-22T15:19:41.030Z,38.13
2023-01-22T15:22:08.519Z,36.33
2023-01-22T15:24:35.286Z,34.50
2023-01-22T15:27:02.105Z,36.40
2023-01-22T15:29:28.879Z,31.40
2023-01-22T15:31:55.724Z,34.93
2023-01-22T15:34:23.843Z,35.60
2023-01-22T15:36:50.686Z,36.53
2023-01-22T15:39:17.460Z,33.43
2023-01-22T15:41:47.363Z,37.07
2023-01-22T15:44:16.440Z,40.53
2023-01-22T15:46:44.643Z,32.53
2023-01-22T15:49:13.212Z,36.37
2023-01-22T15:51:40.988Z,38.03
2023-01-22T15:54:08.432Z,36.90
2023-01-22T15:56:36.809Z,36.47
2023-01-22T15:59:03.958Z,36.73
2023-01-22T16:01:30.889Z,34.67
2023-01-22T16:03:57.759Z,36.70
2023-01-22T16:06:25.971Z,37.87
2023-01-22T16:08:54.042Z,36.53
2023-01-22T16:11:21.112Z,32.50
2023-01-22T16:13:47.993Z,38.50
2023-01-22T16:16:18.463Z,37.43
2023-01-22T16:18:47.984Z,43.93
2023-01-22T16:21:15.044Z,37.53
2023-01-22T16:23:43.173Z,40.40
2023-01-22T16:26:13.297Z,35.00
2023-01-22T16:28:40.571Z,36.57
2023-01-22T16:31:09.316Z,34.30
2023-01-22T16:33:36.863Z,41.63
2023-01-22T16:36:10.501Z,35.63
2023-01-22T16:38:37.324Z,37.70
2023-01-22T16:41:25.045Z,36.30
2023-01-22T16:43:56.580Z,36.83
2023-01-22T16:46:24.728Z,39.27
2023-01-22T16:49:03.484Z,41.83
2023-01-22T16:51:40.621Z,36.90
2023-01-22T16:54:13.280Z,32.63
2023-01-22T16:56:40.132Z,36.13
2023-01-22T16:59:07.034Z,33.80
2023-01-22T17:01:33.847Z,37.90
2023-01-22T17:04:03.176Z,35.73
2023-01-22T17:06:34.349Z,35.80
2023-01-22T17:09:03.661Z,32.03
2023-01-22T17:11:32.593Z,37.47
2023-01-22T17:13:59.733Z,37.50
2023-01-22T17:16:26.548Z,35.27
2023-01-22T17:18:56.012Z,32.03
2023-01-22T17:21:22.855Z,38.53
2023-01-22T17:23:49.632Z,36.63
2023-01-22T17:26:16.623Z,40.17
2023-01-22T17:28:48.553Z,32.27
2023-01-22T17:31:17.524Z,36.13
2023-01-22T17:33:44.655Z,39.57
2023-01-22T17:36:15.532Z,36.07
2023-01-22T17:38:45.014Z,38.17
2023-01-22T17:41:17.143Z,36.60
2023-01-22T17:43:45.115Z,40.43
2023-01-22T17:46:18.024Z,41.20
2023-01-22T17:48:45.188Z,37.73
2023-01-22T17:51:22.384Z,33.00
2023-01-22T17:53:49.870Z,37.10
2023-01-22T17:56:19.791Z,38.93
2023-01-22T17:58:50.910Z,38.07
2023-01-22T18:01:19.228Z,37.67
2023-01-22T18:03:46.479Z,35.40
2023-01-22T18:06:13.452Z,39.33
2023-01-22T18:08:42.613Z,31.80
2023-01-22T18:11:16.001Z,35.63
2023-01-22T18:13:42.988Z,34.13
2023-01-22T18:16:12.169Z,36.17
2023-01-22T18:18:41.373Z,37.57
2023-01-22T18:21:09.963Z,37.30
2023-01-22T18:23:36.812Z,37.97
2023-01-22T18:26:05.001Z,36.33
2023-01-22T18:28:32.079Z,38.97
2023-01-22T18:31:25.815Z,41.17
2023-01-22T18:33:53.652Z,36.90
2023-01-22T18:36:30.167Z,34.80
2023-01-22T18:39:11.343Z,37.60
2023-01-22T18:41:39.435Z,38.70
2023-01-22T18:44:06.487Z,42.80
2023-01-22T18:46:33.895Z,43.33
2023-01-22T18:49:07.124Z,43.10
2023-01-22T18:51:36.439Z,38.70
2023-01-22T18:54:04.995Z,39.40
2023-01-22T18:56:31.834Z,37.63
2023-01-22T18:58:58.884Z,37.03
2023-01-22T19:01:27.607Z,41.43
2023-01-22T19:04:01.001Z,41.97
2023-01-22T19:06:34.662Z,40.60
2023-01-22T19:09:14.949Z,38.10
2023-01-22T19:11:47.020Z,34.17
2023-01-22T19:14:15.699Z,43.07
2023-01-22T19:16:48.376Z,41.37
2023-01-22T19:19:15.322Z,43.67
2023-01-22T19:21:46.826Z,38.13
2023-01-22T19:24:15.411Z,42.03
2023-01-22T19:26:46.375Z,39.73
2023-01-22T19:29:19.997Z,37.80
2023-01-22T19:31:52.964Z,39.30
2023-01-22T19:34:25.730Z,39.33
2023-01-22T19:36:54.918Z,41.63
2023-01-22T19:39:22.649Z,41.10
2023-01-22T19:41:54.258Z,40.70
2023-01-22T19:44:21.564Z,40.20
2023-01-22T19:46:48.482Z,39.17
2023-01-22T19:49:15.689Z,43.67
2023-01-22T19:51:43.081Z,40.27
2023-01-22T19:54:12.126Z,38.53
2023-01-22T19:56:39.545Z,36.47
2023-01-22T19:59:11.180Z,36.20
2023-01-22T20:01:41.140Z,34.37
2023-01-22T20:04:13.881Z,38.07
2023-01-22T20:06:40.705Z,37.37
2023-01-22T20:09:07.704Z,39.83
2023-01-22T20:11:36.752Z,38.70
2023-01-22T20:14:03.533Z,37.97
2023-01-22T20:16:30.433Z,38.77
2023-01-22T20:18:57.481Z,35.37
2023-01-22T20:21:30.005Z,38.83
2023-01-22T20:23:56.781Z,40.53
2023-01-22T20:26:23.555Z,41.47
2023-01-22T20:28:50.409Z,41.87
2023-01-22T20:31:20.221Z,37.47
2023-01-22T20:33:47.172Z,40.40
2023-01-22T20:36:20.371Z,42.60
2023-01-22T20:38:48.236Z,38.13
2023-01-22T20:41:15.202Z,40.07
2023-01-22T20:43:47.202Z,42.33
2023-01-22T20:46:22.673Z,38.93
2023-01-22T20:48:49.684Z,41.07
2023-01-22T20:51:21.843Z,42.07
2023-01-22T20:53:49.322Z,39.97
2023-01-22T20:56:22.686Z,39.97
2023-01-22T20:58:54.592Z,39.53
2023-01-22T21:01:21.445Z,42.37
2023-01-22T21:03:48.688Z,42.80
2023-01-22T21:06:16.959Z,40.70
2023-01-22T21:08:46.416Z,39.33
2023-01-22T21:11:13.802Z,35.37
2023-01-22T21:13:43.046Z,39.33
2023-01-22T21:16:15.177Z,43.70
2023-01-22T21:18:44.378Z,37.27
2023-01-22T21:21:12.471Z,38.23
2023-01-22T21:23:39.419Z,38.70
2023-01-22T21:26:07.695Z,38.30
2023-01-22T21:28:39.723Z,37.83
2023-01-22T21:31:11.469Z,39.53
2023-01-22T21:33:40.882Z,39.57
2023-01-22T21:36:08.307Z,36.87
2023-01-22T21:38:39.766Z,39.67
2023-01-22T21:41:12.544Z,38.53
2023-01-22T21:43:59.198Z,33.67
2023-01-22T21:46:26.326Z,35.63
2023-01-22T21:49:01.243Z,39.70
2023-01-22T21:51:29.141Z,36.43
2023-01-22T21:53:56.622Z,37.47
2023-01-22T21:56:26.530Z,34.13
2023-01-22T21:58:53.390Z,37.00
2023-01-22T22:01:21.372Z,35.83
2023-01-22T22:03:52.861Z,37.80
2023-01-22T22:06:27.087Z,35.23
2023-01-22T22:08:53.868Z,33.07
2023-01-22T22:11:20.816Z,30.77
2023-01-22T22:13:47.600Z,30.23
2023-01-22T22:16:14.528Z,35.53
2023-01-22T22:18:46.428Z,35.87
2023-01-22T22:21:13.245Z,33.23
2023-01-22T22:23:40.362Z,38.17
2023-01-22T22:26:07.854Z,37.97
2023-01-22T22:28:37.218Z,34.83
2023-01-22T22:31:04.927Z,32.20
2023-01-22T22:33:34.432Z,31.50
2023-01-22T22:36:02.000Z,34.13
2023-01-22T22:38:29.018Z,32.37
2023-01-22T22:41:03.808Z,37.03
2023-01-22T22:43:38.336Z,35.07
2023-01-22T22:46:07.353Z,34.07
2023-01-22T22:48:34.194Z,33.87
2023-01-22T22:51:01.060Z,35.37
2023-01-22T22:53:27.812Z,32.83
2023-01-22T22:55:59.211Z,34.83
2023-01-22T22:58:26.039Z,35.67
2023-01-22T23:00:53.487Z,33.77
2023-01-22T23:03:22.579Z,31.43
2023-01-22T23:05:49.380Z,33.83
2023-01-22T23:08:18.374Z,32.33
2023-01-22T23:10:45.165Z,33.93
2023-01-22T23:13:12.349Z,39.77
2023-01-22T23:15:39.979Z,34.70
2023-01-22T23:18:09.479Z,39.47
2023-01-22T23:20:36.477Z,32.67
2023-01-22T23:23:05.412Z,32.90
2023-01-22T23:25:32.238Z,33.77
2023-01-22T23:28:01.273Z,35.80
2023-01-22T23:30:28.085Z,34.47
2023-01-22T23:32:57.744Z,35.97
2023-01-22T23:35:24.507Z,37.70
2023-01-22T23:37:51.289Z,36.47
2023-01-22T23:40:18.527Z,41.87
2023-01-22T23:42:53.871Z,39.30
2023-01-22T23:45:27.757Z,37.67
2023-01-22T23:47:54.630Z,34.30
2023-01-22T23:50:21.613Z,33.67
2023-01-22T23:52:48.453Z,32.80
2023-01-22T23:55:15.262Z,37.83
2023-01-22T23:57:44.445Z,35.43
